Time;durP1;ratioP1;P1;durP2;ratioP2;P2;SDS_P1;SDS_P2;PMS_P1;PMS_P2;Temp;Humidity;BMP_temperature;BMP_pressure;BME280_temperature;BME280_humidity;BME280_pressure;Samples;Min_cycle;Max_cycle;Signal;HPM_P1;HPM_P2
2021/10/02 00:34:26;;;;;;;;;;;13.70;85.10;;;;;;5061049;28;19924;-74
2021/10/02 00:37:08;;;;;;;;;;;13.60;85.20;;;;;;5055421;28;19917;-73
2021/10/02 00:44:59;;;;;;;;;;;13.70;86.20;;;;;;5060461;28;19920;-73
2021/10/02 00:47:27;;;;;;;;;;;13.70;86.40;;;;;;5059809;28;19917;-73
2021/10/02 00:49:53;;;;;;;;;;;13.70;86.80;;;;;;5059347;28;19982;-73
2021/10/02 00:52:19;;;;;;;;;;;13.70;86.60;;;;;;5058202;28;19917;-74
2021/10/02 00:54:45;;;;;;;;;;;13.70;86.70;;;;;;5049035;28;19912;-74
2021/10/02 00:57:11;;;;;;;;;;;13.70;87.10;;;;;;5041485;28;19916;-74
2021/10/02 00:59:37;;;;;;;;;;;13.70;86.80;;;;;;5059144;28;19920;-74
2021/10/02 01:02:03;;;;;;;;;;;13.70;86.90;;;;;;5047061;28;19916;-74
2021/10/02 01:04:51;;;;;;;;;;;13.70;86.80;;;;;;5058558;28;19912;-73
2021/10/02 01:07:22;;;;;;;;;;;13.60;87.30;;;;;;5058042;28;20410;-74
2021/10/02 01:10:10;;;;;;;;;;;13.60;87.50;;;;;;5040314;28;19927;-73
2021/10/02 01:12:45;;;;;;;;;;;13.60;87.80;;;;;;5058934;28;19955;-73
2021/10/02 01:15:12;;;;;;;;;;;13.70;88.10;;;;;;5041119;28;19943;-73
2021/10/02 01:17:45;;;;;;;;;;;13.70;87.70;;;;;;5058652;28;19921;-73
2021/10/02 01:20:18;;;;;;;;;;;13.70;88.10;;;;;;5058668;28;19919;-73
2021/10/02 01:22:46;;;;;;;;;;;13.70;87.80;;;;;;5056683;28;20371;-73
2021/10/02 01:25:15;;;;;;;;;;;13.70;87.80;;;;;;5058847;28;20355;-73
2021/10/02 01:27:53;;;;;;;;;;;13.70;88.10;;;;;;5049202;28;19912;-73
2021/10/02 01:30:45;;;;;;;;;;;13.80;88.10;;;;;;5047149;28;20323;-73
2021/10/02 01:33:25;;;;;;;;;;;13.80;88.20;;;;;;5058883;28;19921;-74
2021/10/02 01:36:19;;;;;;;;;;;13.80;88.30;;;;;;5058016;28;20429;-73
2021/10/02 01:47:14;;;;;;;;;;;13.90;88.10;;;;;;5058870;28;19943;-74
2021/10/02 01:49:41;;;;;;;;;;;13.90;87.90;;;;;;5041459;28;19999;-73
2021/10/02 01:52:07;;;;;;;;;;;13.90;88.30;;;;;;5045126;28;19935;-73
2021/10/02 01:54:33;;;;;;;;;;;13.90;89.20;;;;;;5058623;28;19921;-73
2021/10/02 01:56:59;;;;;;;;;;;13.90;89.90;;;;;;5040685;28;19994;-73
2021/10/02 01:59:26;;;;;;;;;;;13.80;90.00;;;;;;5048060;28;20389;-73
2021/10/02 02:01:52;;;;;;;;;;;13.80;90.20;;;;;;5057492;28;19917;-73
2021/10/02 02:04:19;;;;;;;;;;;13.80;90.40;;;;;;5041006;28;19923;-74
2021/10/02 02:06:46;;;;;;;;;;;13.80;90.50;;;;;;5040356;28;19967;-74
2021/10/02 02:09:12;;;;;;;;;;;13.80;90.80;;;;;;5058036;28;19966;-74
2021/10/02 02:11:39;;;;;;;;;;;13.80;91.00;;;;;;5052749;28;20024;-74
2021/10/02 02:14:04;;;;;;;;;;;13.70;91.40;;;;;;5058386;28;19913;-74
2021/10/02 02:16:30;;;;;;;;;;;13.70;91.60;;;;;;5041194;28;19912;-74
2021/10/02 02:18:57;;;;;;;;;;;13.70;91.50;;;;;;5058272;28;20039;-74
2021/10/02 02:21:24;;;;;;;;;;;13.60;92.00;;;;;;5046182;28;19936;-74
2021/10/02 02:23:49;;;;;;;;;;;13.60;92.50;;;;;;5040195;28;19930;-74
2021/10/02 02:26:15;;;;;;;;;;;13.50;92.70;;;;;;5058332;28;19924;-73
2021/10/02 02:28:41;;;;;;;;;;;13.50;93.00;;;;;;5053101;28;19916;-73
2021/10/02 02:31:07;;;;;;;;;;;13.50;93.40;;;;;;5055688;28;19935;-73
2021/10/02 02:33:33;;;;;;;;;;;13.50;93.30;;;;;;5058199;28;19920;-73
2021/10/02 02:35:59;;;;;;;;;;;13.40;93.30;;;;;;5054804;28;20339;-73
2021/10/02 02:38:24;;;;;;;;;;;13.40;93.80;;;;;;5058419;28;19912;-73
2021/10/02 02:40:50;;;;;;;;;;;13.50;94.30;;;;;;5057097;28;19919;-73
2021/10/02 02:43:16;;;;;;;;;;;13.40;94.20;;;;;;5058637;28;19995;-73
2021/10/02 02:45:44;;;;;;;;;;;13.40;94.20;;;;;;5057320;28;19944;-73
2021/10/02 02:48:12;;;;;;;;;;;13.40;94.10;;;;;;5056956;28;20039;-73
2021/10/02 02:50:43;;;;;;;;;;;13.50;94.00;;;;;;5057183;28;19928;-74
2021/10/02 02:53:11;;;;;;;;;;;13.40;93.80;;;;;;5057220;28;19992;-73
2021/10/02 02:55:44;;;;;;;;;;;13.40;94.00;;;;;;5057741;28;19956;-73
2021/10/02 02:58:10;;;;;;;;;;;13.40;94.30;;;;;;5040039;28;19916;-73
2021/10/02 03:00:42;;;;;;;;;;;13.30;94.40;;;;;;5057000;28;19922;-73
2021/10/02 03:03:10;;;;;;;;;;;13.30;94.70;;;;;;5055594;28;19970;-73
2021/10/02 03:05:39;;;;;;;;;;;13.30;94.70;;;;;;5056851;28;20028;-73
2021/10/02 03:08:08;;;;;;;;;;;13.40;94.70;;;;;;5048085;28;19920;-73
2021/10/02 03:10:33;;;;;;;;;;;13.40;95.10;;;;;;5041010;28;19928;-73
2021/10/02 03:13:02;;;;;;;;;;;13.40;94.80;;;;;;5057947;28;19916;-73
2021/10/02 03:15:27;;;;;;;;;;;13.40;95.00;;;;;;5057823;28;20061;-74
2021/10/02 03:17:53;;;;;;;;;;;13.40;94.70;;;;;;5056345;28;20831;-73
2021/10/02 03:20:19;;;;;;;;;;;13.40;94.60;;;;;;5057415;28;20264;-73
2021/10/02 03:22:46;;;;;;;;;;;13.40;94.80;;;;;;5057453;28;20046;-73
2021/10/02 03:25:12;;;;;;;;;;;13.40;94.90;;;;;;5041120;28;20385;-73
2021/10/02 03:27:38;;;;;;;;;;;13.40;95.00;;;;;;5040456;28;19917;-73
2021/10/02 03:30:05;;;;;;;;;;;13.40;94.70;;;;;;5057560;28;20032;-73
2021/10/02 03:32:30;;;;;;;;;;;13.40;94.90;;;;;;5046272;28;19920;-74
2021/10/02 03:34:56;;;;;;;;;;;13.30;95.10;;;;;;5057225;28;19919;-73
2021/10/02 03:37:22;;;;;;;;;;;13.30;95.10;;;;;;5056564;28;19924;-73
2021/10/02 03:39:47;;;;;;;;;;;13.30;95.40;;;;;;5039951;28;19909;-73
2021/10/02 03:42:14;;;;;;;;;;;13.20;95.50;;;;;;5056726;28;19994;-73
2021/10/02 03:44:41;;;;;;;;;;;13.20;95.80;;;;;;5057485;28;19939;-74
2021/10/02 03:47:07;;;;;;;;;;;13.20;96.00;;;;;;5045944;28;19923;-73
2021/10/02 03:49:32;;;;;;;;;;;13.20;96.10;;;;;;5057058;28;19913;-73
2021/10/02 03:51:57;;;;;;;;;;;13.20;96.30;;;;;;5060041;28;20383;-73
2021/10/02 03:54:23;;;;;;;;;;;13.10;96.70;;;;;;5043179;28;19948;-73
2021/10/02 03:56:48;;;;;;;;;;;13.10;96.70;;;;;;5060597;28;19931;-73
2021/10/02 03:59:14;;;;;;;;;;;13.00;96.80;;;;;;5060268;28;19916;-74
2021/10/02 04:01:39;;;;;;;;;;;13.00;97.00;;;;;;5060079;28;20294;-74
2021/10/02 04:04:05;;;;;;;;;;;13.00;97.00;;;;;;5060490;28;20389;-74
2021/10/02 04:06:30;;;;;;;;;;;12.90;96.90;;;;;;5042813;28;19919;-74
2021/10/02 04:08:55;;;;;;;;;;;12.90;97.00;;;;;;5059571;28;19913;-72
2021/10/02 04:11:21;;;;;;;;;;;12.90;97.20;;;;;;5060471;28;19917;-72
2021/10/02 04:13:46;;;;;;;;;;;12.80;97.40;;;;;;5060802;28;19909;-72
2021/10/02 04:16:12;;;;;;;;;;;12.90;97.60;;;;;;5060305;28;19916;-72
2021/10/02 04:18:37;;;;;;;;;;;12.90;97.60;;;;;;5060794;28;19991;-72
2021/10/02 04:21:02;;;;;;;;;;;12.90;97.80;;;;;;5042387;28;19956;-72
2021/10/02 04:23:30;;;;;;;;;;;12.90;97.40;;;;;;5060344;28;20019;-72
2021/10/02 04:25:56;;;;;;;;;;;12.90;97.80;;;;;;5059526;28;19920;-72
2021/10/02 04:28:21;;;;;;;;;;;12.90;97.80;;;;;;5061028;28;20374;-72
2021/10/02 04:30:47;;;;;;;;;;;12.80;97.70;;;;;;5056673;28;19920;-72
2021/10/02 04:33:12;;;;;;;;;;;12.90;97.90;;;;;;5041096;28;19920;-72
2021/10/02 04:35:38;;;;;;;;;;;12.90;97.80;;;;;;5040227;28;19913;-72
2021/10/02 04:38:04;;;;;;;;;;;12.90;98.00;;;;;;5039093;28;20027;-72
2021/10/02 04:40:29;;;;;;;;;;;12.90;97.90;;;;;;5021894;28;19917;-72
2021/10/02 04:42:55;;;;;;;;;;;12.90;97.80;;;;;;5021811;28;19962;-72
2021/10/02 04:45:20;;;;;;;;;;;13.00;97.80;;;;;;5022331;28;19908;-72
2021/10/02 04:47:46;;;;;;;;;;;13.00;97.60;;;;;;5040175;28;20388;-72
2021/10/02 04:50:12;;;;;;;;;;;13.00;97.70;;;;;;5020894;28;19913;-71
2021/10/02 04:52:38;;;;;;;;;;;13.00;97.50;;;;;;5039530;28;20315;-71
2021/10/02 04:55:04;;;;;;;;;;;13.00;97.40;;;;;;5027504;28;19916;-72
2021/10/02 04:57:30;;;;;;;;;;;13.00;97.30;;;;;;5025599;28;19956;-72
2021/10/02 04:59:55;;;;;;;;;;;13.00;97.30;;;;;;5043293;28;19919;-72
2021/10/02 05:02:21;;;;;;;;;;;13.00;97.10;;;;;;5044099;28;19909;-72
2021/10/02 05:04:46;;;;;;;;;;;13.00;97.20;;;;;;5043070;28;19912;-72
2021/10/02 05:07:12;;;;;;;;;;;13.00;97.50;;;;;;5039779;28;20364;-72
2021/10/02 05:09:40;;;;;;;;;;;13.00;97.60;;;;;;5039038;28;19959;-72
2021/10/02 05:12:07;;;;;;;;;;;13.00;97.60;;;;;;5038870;28;19920;-71
2021/10/02 05:14:32;;;;;;;;;;;13.00;97.40;;;;;;5022952;28;19935;-71
2021/10/02 05:16:58;;;;;;;;;;;13.00;97.50;;;;;;5022238;28;20371;-71
2021/10/02 05:19:23;;;;;;;;;;;13.00;97.50;;;;;;5040577;28;19913;-72
2021/10/02 05:21:48;;;;;;;;;;;13.00;97.50;;;;;;5039059;28;19948;-72
2021/10/02 05:24:14;;;;;;;;;;;13.00;97.50;;;;;;5040935;28;20000;-72
2021/10/02 05:26:39;;;;;;;;;;;13.00;97.50;;;;;;5041318;28;19986;-72
2021/10/02 05:29:05;;;;;;;;;;;13.00;97.50;;;;;;5038586;28;19987;-71
2021/10/02 05:31:30;;;;;;;;;;;13.00;97.50;;;;;;5045995;28;19921;-72
2021/10/02 05:33:56;;;;;;;;;;;12.90;97.50;;;;;;5040826;28;19913;-72
2021/10/02 05:36:21;;;;;;;;;;;13.00;97.60;;;;;;5041327;28;19913;-72
2021/10/02 05:38:46;;;;;;;;;;;12.90;97.80;;;;;;5058978;28;19999;-72
2021/10/02 05:41:12;;;;;;;;;;;12.90;97.70;;;;;;5058089;28;20015;-72
2021/10/02 05:43:37;;;;;;;;;;;12.90;97.60;;;;;;5059496;28;19924;-72
2021/10/02 05:46:03;;;;;;;;;;;12.90;97.70;;;;;;5058020;28;19916;-72
2021/10/02 05:48:28;;;;;;;;;;;12.90;97.80;;;;;;5059228;28;19924;-71
2021/10/02 05:50:54;;;;;;;;;;;12.90;97.80;;;;;;5056359;28;20414;-72
2021/10/02 05:53:19;;;;;;;;;;;12.90;97.70;;;;;;5059370;28;19920;-72
2021/10/02 05:55:44;;;;;;;;;;;12.80;97.70;;;;;;5041171;28;19908;-71
2021/10/02 05:58:10;;;;;;;;;;;12.80;97.80;;;;;;5059956;28;19913;-71
2021/10/02 06:00:35;;;;;;;;;;;12.80;97.70;;;;;;5059315;28;20431;-71
2021/10/02 06:03:01;;;;;;;;;;;12.80;97.60;;;;;;5059574;28;19923;-71
2021/10/02 06:05:27;;;;;;;;;;;12.80;97.80;;;;;;5059244;28;19970;-72
2021/10/02 06:07:53;;;;;;;;;;;12.80;97.90;;;;;;5060968;28;19927;-72
2021/10/02 06:10:19;;;;;;;;;;;12.80;97.80;;;;;;5050710;28;20318;-72
2021/10/02 06:12:45;;;;;;;;;;;12.70;97.60;;;;;;5047357;28;19923;-72
2021/10/02 06:15:10;;;;;;;;;;;12.60;97.40;;;;;;5046148;28;19915;-72
2021/10/02 06:17:35;;;;;;;;;;;12.60;97.30;;;;;;5059955;28;19927;-72
2021/10/02 06:20:01;;;;;;;;;;;12.60;97.70;;;;;;5042571;28;20003;-72
2021/10/02 06:22:26;;;;;;;;;;;12.50;97.90;;;;;;5059732;28;19944;-72
2021/10/02 06:24:52;;;;;;;;;;;12.60;98.30;;;;;;5060485;28;20386;-72
2021/10/02 06:27:17;;;;;;;;;;;12.70;98.50;;;;;;5059969;28;20510;-72
2021/10/02 06:29:42;;;;;;;;;;;12.70;98.20;;;;;;5060510;28;19913;-72
2021/10/02 06:32:10;;;;;;;;;;;12.80;98.20;;;;;;5052292;23;21315;-61
2021/10/02 06:34:35;;;;;;;;;;;12.90;98.30;;;;;;5047146;28;19912;-62
2021/10/02 06:37:01;;;;;;;;;;;13.00;98.20;;;;;;5041705;28;19985;-62
2021/10/02 06:39:26;;;;;;;;;;;13.00;98.00;;;;;;5026109;28;19927;-61
2021/10/02 06:41:51;;;;;;;;;;;13.10;98.10;;;;;;5031183;28;20343;-62
2021/10/02 06:44:17;;;;;;;;;;;13.10;98.10;;;;;;5041581;28;19927;-61
2021/10/02 06:46:42;;;;;;;;;;;13.10;97.80;;;;;;5033619;28;20288;-62
2021/10/02 06:49:08;;;;;;;;;;;13.20;98.00;;;;;;5040712;28;19916;-62
2021/10/02 06:51:34;;;;;;;;;;;13.20;98.00;;;;;;5038426;28;19978;-62
2021/10/02 06:53:59;;;;;;;;;;;13.30;97.90;;;;;;5041780;28;19916;-62
2021/10/02 06:56:24;;;;;;;;;;;13.30;98.00;;;;;;5044691;28;19963;-62
2021/10/02 06:58:50;;;;;;;;;;;13.40;98.00;;;;;;5043778;28;20000;-62
2021/10/02 07:01:15;;;;;;;;;;;13.40;97.90;;;;;;5042764;28;19921;-62
2021/10/02 07:03:41;;;;;;;;;;;13.40;97.90;;;;;;5042502;28;20017;-61
2021/10/02 07:06:06;;;;;;;;;;;13.40;97.80;;;;;;5016095;28;19925;-61
2021/10/02 07:08:32;;;;;;;;;;;13.50;97.80;;;;;;5042454;28;19915;-62
2021/10/02 07:10:57;;;;;;;;;;;13.50;97.90;;;;;;5042192;28;20321;-62
2021/10/02 07:13:23;;;;;;;;;;;13.60;97.90;;;;;;5042153;28;20312;-62
2021/10/02 07:15:48;;;;;;;;;;;13.60;97.80;;;;;;5043588;28;20317;-62
2021/10/02 07:18:14;;;;;;;;;;;13.70;97.70;;;;;;5044672;28;19915;-62
2021/10/02 07:20:39;;;;;;;;;;;13.70;97.60;;;;;;5043450;28;19947;-62
2021/10/02 07:23:05;;;;;;;;;;;13.70;97.50;;;;;;5015232;28;19924;-62
2021/10/02 07:25:30;;;;;;;;;;;13.80;97.40;;;;;;5048510;28;19908;-62
2021/10/02 07:27:56;;;;;;;;;;;13.80;97.30;;;;;;5048527;28;20008;-62
2021/10/02 07:30:22;;;;;;;;;;;13.80;97.30;;;;;;5047751;28;19913;-62
2021/10/02 07:32:47;;;;;;;;;;;13.90;97.30;;;;;;5060419;28;19926;-62
2021/10/02 07:35:13;;;;;;;;;;;13.90;97.30;;;;;;5063856;28;19919;-62
2021/10/02 07:37:39;;;;;;;;;;;14.00;97.30;;;;;;5068101;28;19912;-62
2021/10/02 07:40:06;;;;;;;;;;;14.00;97.40;;;;;;5064430;28;20420;-62
2021/10/02 07:42:32;;;;;;;;;;;14.00;97.60;;;;;;5061884;28;20537;-63
2021/10/02 07:45:01;;;;;;;;;;;14.00;97.40;;;;;;5064267;28;19912;-62
2021/10/02 07:47:27;;;;;;;;;;;14.00;97.30;;;;;;5067451;28;19923;-62
2021/10/02 07:49:53;;;;;;;;;;;14.00;97.20;;;;;;5065210;28;19921;-62
2021/10/02 07:52:19;;;;;;;;;;;14.00;97.20;;;;;;5064395;28;19927;-62
2021/10/02 07:54:45;;;;;;;;;;;14.10;97.10;;;;;;5062260;28;20558;-62
2021/10/02 07:57:11;;;;;;;;;;;14.20;97.00;;;;;;5060207;28;19975;-63
2021/10/02 07:59:37;;;;;;;;;;;14.20;96.90;;;;;;5069047;28;19963;-62
2021/10/02 08:02:05;;;;;;;;;;;14.30;96.80;;;;;;5055857;28;19912;-62
2021/10/02 08:04:30;;;;;;;;;;;14.40;96.60;;;;;;5057872;28;19917;-62
2021/10/02 08:06:56;;;;;;;;;;;14.40;96.50;;;;;;5058937;28;19923;-63
2021/10/02 08:09:22;;;;;;;;;;;14.50;96.50;;;;;;5066251;28;20326;-62
2021/10/02 08:11:47;;;;;;;;;;;14.50;96.40;;;;;;5060568;28;19959;-62
2021/10/02 08:14:13;;;;;;;;;;;14.60;96.40;;;;;;5066500;28;19923;-62
2021/10/02 08:16:38;;;;;;;;;;;14.60;96.30;;;;;;5065593;28;19917;-62
2021/10/02 08:19:07;;;;;;;;;;;14.80;96.30;;;;;;5062987;28;19958;-62
2021/10/02 08:21:33;;;;;;;;;;;14.90;96.20;;;;;;5064596;28;19912;-63
2021/10/02 08:24:01;;;;;;;;;;;14.90;96.10;;;;;;5065234;28;19921;-62
2021/10/02 08:26:27;;;;;;;;;;;15.00;96.00;;;;;;5064243;28;19988;-62
2021/10/02 08:28:52;;;;;;;;;;;15.10;95.80;;;;;;5064463;28;19996;-62
2021/10/02 08:31:19;;;;;;;;;;;15.20;95.70;;;;;;5065060;28;19928;-62
2021/10/02 08:33:45;;;;;;;;;;;15.20;95.70;;;;;;5066002;28;20347;-62
2021/10/02 08:36:10;;;;;;;;;;;15.30;95.60;;;;;;5059797;28;19917;-63
2021/10/02 08:38:36;;;;;;;;;;;15.40;95.70;;;;;;5063500;28;19994;-63
2021/10/02 08:41:03;;;;;;;;;;;15.60;95.60;;;;;;5058541;28;19917;-62
2021/10/02 08:43:29;;;;;;;;;;;15.80;95.50;;;;;;5065160;28;19916;-63
2021/10/02 08:45:54;;;;;;;;;;;16.10;95.30;;;;;;5063541;28;20330;-63
2021/10/02 08:48:21;;;;;;;;;;;16.30;95.00;;;;;;5062659;28;20299;-63
2021/10/02 08:50:47;;;;;;;;;;;16.40;94.80;;;;;;5057172;28;19928;-62
2021/10/02 08:53:13;;;;;;;;;;;16.50;94.70;;;;;;5059302;28;20387;-62
2021/10/02 08:55:40;;;;;;;;;;;16.70;94.30;;;;;;5058988;28;19956;-62
2021/10/02 08:58:06;;;;;;;;;;;16.70;94.10;;;;;;5058219;28;20656;-63
2021/10/02 09:00:31;;;;;;;;;;;16.70;93.30;;;;;;5050486;28;19999;-62
2021/10/02 09:02:57;;;;;;;;;;;16.70;93.20;;;;;;5054549;28;20423;-62
2021/10/02 09:05:24;;;;;;;;;;;16.50;93.30;;;;;;5062467;28;19954;-62
2021/10/02 09:07:50;;;;;;;;;;;16.40;93.20;;;;;;5066177;28;19923;-62
2021/10/02 09:10:16;;;;;;;;;;;16.40;93.40;;;;;;5064300;28;19913;-62
2021/10/02 09:12:42;;;;;;;;;;;16.30;93.50;;;;;;5060794;28;19913;-62
2021/10/02 09:15:08;;;;;;;;;;;16.20;93.60;;;;;;5062773;28;19916;-62
2021/10/02 09:17:33;;;;;;;;;;;16.20;93.60;;;;;;5060542;28;19913;-62
2021/10/02 09:19:59;;;;;;;;;;;16.20;93.70;;;;;;5064943;28;19970;-62
2021/10/02 09:22:25;;;;;;;;;;;16.20;93.60;;;;;;5065759;28;20389;-62
2021/10/02 09:24:51;;;;;;;;;;;16.20;93.60;;;;;;5066971;28;19909;-62
2021/10/02 09:27:16;;;;;;;;;;;16.20;93.60;;;;;;5065995;28;20456;-62
2021/10/02 09:29:50;;;;;;;;;;;16.20;93.60;;;;;;5067961;28;20003;-62
2021/10/02 09:32:18;;;;;;;;;;;16.20;93.50;;;;;;5065253;28;19978;-62
2021/10/02 09:34:43;;;;;;;;;;;16.30;93.50;;;;;;5055101;28;19916;-62
2021/10/02 09:37:14;;;;;;;;;;;16.30;93.50;;;;;;5059013;28;20357;-62
2021/10/02 09:39:41;;;;;;;;;;;16.30;93.50;;;;;;5060812;28;19912;-62
2021/10/02 09:42:18;;;;;;;;;;;16.30;93.40;;;;;;5061512;28;19923;-62
2021/10/02 09:44:43;;;;;;;;;;;16.40;93.40;;;;;;5065276;28;19969;-62
2021/10/02 09:47:15;;;;;;;;;;;16.50;93.40;;;;;;5060907;28;20389;-62
2021/10/02 09:49:41;;;;;;;;;;;16.60;93.30;;;;;;5054708;28;19913;-61
2021/10/02 09:52:06;;;;;;;;;;;16.70;93.20;;;;;;5055230;28;19974;-62
2021/10/02 09:54:36;;;;;;;;;;;16.80;93.00;;;;;;5053927;28;20361;-62
2021/10/02 09:57:09;;;;;;;;;;;16.90;93.00;;;;;;5064646;28;19912;-62
2021/10/02 09:59:35;;;;;;;;;;;17.00;92.90;;;;;;5063894;28;19953;-62
2021/10/02 10:02:14;;;;;;;;;;;17.10;92.80;;;;;;5055859;28;19916;-62
2021/10/02 10:04:47;;;;;;;;;;;17.20;92.60;;;;;;5063212;28;19913;-62
2021/10/02 10:07:12;;;;;;;;;;;17.30;92.50;;;;;;5065416;28;19908;-62
2021/10/02 10:09:40;;;;;;;;;;;17.40;92.50;;;;;;5066606;28;19908;-62
2021/10/02 10:12:06;;;;;;;;;;;17.50;92.20;;;;;;5059385;28;20377;-62
2021/10/02 10:14:33;;;;;;;;;;;17.50;92.00;;;;;;5064373;28;19951;-62
2021/10/02 10:16:59;;;;;;;;;;;17.60;92.10;;;;;;5062598;28;19925;-62
2021/10/02 10:19:25;;;;;;;;;;;17.50;92.00;;;;;;5065029;28;19909;-63
2021/10/02 10:22:03;;;;;;;;;;;17.50;91.80;;;;;;5062833;28;19916;-63
2021/10/02 10:24:28;;;;;;;;;;;17.60;91.90;;;;;;5065117;28;19916;-63
2021/10/02 10:26:57;;;;;;;;;;;17.70;91.50;;;;;;5065118;28;20034;-62
2021/10/02 10:29:39;;;;;;;;;;;17.80;91.40;;;;;;5061171;28;19913;-61
2021/10/02 10:32:08;;;;;;;;;;;17.80;91.20;;;;;;5063471;28;19974;-61
2021/10/02 10:34:38;;;;;;;;;;;17.80;91.10;;;;;;5080989;28;20332;-62
2021/10/02 10:37:05;;;;;;;;;;;17.70;91.00;;;;;;5064990;28;20211;-61
2021/10/02 10:39:30;;;;;;;;;;;17.70;91.10;;;;;;5066342;28;19912;-62
2021/10/02 10:41:56;;;;;;;;;;;17.60;91.10;;;;;;5064885;28;19998;-61
2021/10/02 10:44:22;;;;;;;;;;;17.50;91.20;;;;;;5065332;28;19955;-61
2021/10/02 10:46:48;;;;;;;;;;;17.50;91.20;;;;;;5059758;28;19913;-61
2021/10/02 10:49:14;;;;;;;;;;;17.50;91.30;;;;;;5065211;28;19909;-62
2021/10/02 10:51:42;;;;;;;;;;;17.50;91.30;;;;;;5063456;28;19991;-61
2021/10/02 10:54:14;;;;;;;;;;;17.50;91.50;;;;;;5065036;28;19913;-62
2021/10/02 10:56:44;;;;;;;;;;;17.50;91.50;;;;;;5059034;28;19913;-62
2021/10/02 10:59:11;;;;;;;;;;;17.60;91.40;;;;;;5065702;28;20303;-61
2021/10/02 11:01:40;;;;;;;;;;;17.60;91.60;;;;;;5061139;28;20381;-62
2021/10/02 11:04:07;;;;;;;;;;;17.70;91.40;;;;;;5061182;28;19965;-62
2021/10/02 11:06:48;;;;;;;;;;;17.70;91.20;;;;;;5069890;28;19908;-62
2021/10/02 11:09:14;;;;;;;;;;;17.80;91.20;;;;;;5067916;28;19932;-61
2021/10/02 11:11:49;;;;;;;;;;;18.00;91.10;;;;;;5063649;28;19969;-61
2021/10/02 11:14:16;;;;;;;;;;;18.10;90.90;;;;;;5061211;28;19939;-61
2021/10/02 11:16:43;;;;;;;;;;;18.20;90.80;;;;;;5049766;28;19916;-63
2021/10/02 11:19:28;;;;;;;;;;;18.30;90.80;;;;;;5068053;28;19912;-61
2021/10/02 11:22:00;;;;;;;;;;;18.40;90.70;;;;;;5053402;28;19938;-61
2021/10/02 11:24:46;;;;;;;;;;;18.50;90.70;;;;;;5061619;28;19912;-61
2021/10/02 11:27:20;;;;;;;;;;;18.50;90.60;;;;;;5063687;28;20289;-62
2021/10/02 11:29:47;;;;;;;;;;;18.40;90.30;;;;;;5065250;28;20004;-62
2021/10/02 11:32:30;;;;;;;;;;;18.40;90.50;;;;;;5066577;28;19985;-62
2021/10/02 11:35:10;;;;;;;;;;;18.50;90.40;;;;;;5058352;28;19962;-61
2021/10/02 11:37:42;;;;;;;;;;;18.60;90.20;;;;;;5064890;28;20306;-62
2021/10/02 11:40:26;;;;;;;;;;;18.60;90.10;;;;;;5063994;28;19940;-62
2021/10/02 11:43:10;;;;;;;;;;;18.60;90.00;;;;;;5057435;28;19985;-62
2021/10/02 11:45:35;;;;;;;;;;;18.60;90.10;;;;;;5062712;28;19913;-61
2021/10/02 11:48:17;;;;;;;;;;;18.60;90.10;;;;;;5062250;28;19939;-62
2021/10/02 11:51:09;;;;;;;;;;;18.60;89.90;;;;;;5057496;28;20023;-61
2021/10/02 11:53:41;;;;;;;;;;;18.70;90.00;;;;;;5064315;28;20249;-62
2021/10/02 11:56:10;;;;;;;;;;;18.70;90.00;;;;;;5065696;28;19959;-62
2021/10/02 11:58:40;;;;;;;;;;;18.80;90.00;;;;;;5062611;28;20353;-62
2021/10/02 12:01:05;;;;;;;;;;;18.90;89.60;;;;;;5063545;28;19931;-62
2021/10/02 12:03:32;;;;;;;;;;;18.90;89.00;;;;;;5065066;28;19916;-62
2021/10/02 12:05:58;;;;;;;;;;;18.90;88.70;;;;;;5065926;28;20003;-62
2021/10/02 12:08:24;;;;;;;;;;;18.90;88.70;;;;;;5062009;28;19912;-62
2021/10/02 12:10:58;;;;;;;;;;;18.80;88.20;;;;;;5047865;28;19925;-62
2021/10/02 12:13:23;;;;;;;;;;;18.80;88.60;;;;;;5065271;28;19999;-61
2021/10/02 12:15:56;;;;;;;;;;;18.80;88.80;;;;;;5067355;28;20416;-60
2021/10/02 12:18:21;;;;;;;;;;;18.80;88.80;;;;;;5060793;28;19912;-61
2021/10/02 12:20:47;;;;;;;;;;;18.80;88.80;;;;;;5060189;28;20176;-62
2021/10/02 12:23:12;;;;;;;;;;;18.80;88.60;;;;;;5061812;28;19913;-62
2021/10/02 12:25:39;;;;;;;;;;;18.90;88.60;;;;;;5058463;28;19916;-62
2021/10/02 12:28:05;;;;;;;;;;;18.90;88.20;;;;;;5064216;28;19966;-61
2021/10/02 12:30:30;;;;;;;;;;;18.90;88.10;;;;;;5060169;28;19991;-62
2021/10/02 12:32:57;;;;;;;;;;;18.90;88.30;;;;;;5060550;22;19935;-59
2021/10/02 12:35:22;;;;;;;;;;;19.00;88.30;;;;;;5046715;28;19916;-58
2021/10/02 12:37:48;;;;;;;;;;;19.00;87.80;;;;;;5044164;28;20200;-60
2021/10/02 12:40:13;;;;;;;;;;;19.10;87.80;;;;;;5045315;28;19921;-62
2021/10/02 12:42:39;;;;;;;;;;;19.10;87.80;;;;;;5042292;28;19917;-60
2021/10/02 12:45:06;;;;;;;;;;;19.10;87.80;;;;;;5046107;28;19955;-60
2021/10/02 12:47:32;;;;;;;;;;;19.20;87.60;;;;;;5044133;28;19948;-62
2021/10/02 12:50:02;;;;;;;;;;;19.20;87.60;;;;;;5044251;28;19967;-61
2021/10/02 12:52:28;;;;;;;;;;;19.20;87.30;;;;;;5046115;28;19923;-62
2021/10/02 12:54:55;;;;;;;;;;;19.20;87.40;;;;;;5044412;28;19927;-58
2021/10/02 12:57:25;;;;;;;;;;;19.30;87.40;;;;;;5040608;28;19944;-57
2021/10/02 12:59:50;;;;;;;;;;;19.30;86.70;;;;;;5045004;28;20385;-59
2021/10/02 13:02:17;;;;;;;;;;;19.40;87.00;;;;;;5043573;28;19944;-60
2021/10/02 13:04:42;;;;;;;;;;;19.40;87.10;;;;;;5044037;28;20366;-62
2021/10/02 13:07:08;;;;;;;;;;;19.50;86.60;;;;;;5045509;28;19917;-58
2021/10/02 13:09:52;;;;;;;;;;;19.60;87.20;;;;;;5045647;28;19920;-60
2021/10/02 13:12:23;;;;;;;;;;;19.80;86.70;;;;;;5023741;28;19924;-58
2021/10/02 13:14:49;;;;;;;;;;;19.80;86.60;;;;;;5047315;28;19916;-61
2021/10/02 13:17:14;;;;;;;;;;;19.90;86.60;;;;;;5045650;28;19929;-60
2021/10/02 13:19:40;;;;;;;;;;;20.00;86.10;;;;;;5044857;28;20256;-59
2021/10/02 13:22:16;;;;;;;;;;;20.00;86.20;;;;;;5043405;28;19939;-58
2021/10/02 13:25:00;;;;;;;;;;;20.00;85.70;;;;;;5042942;28;19920;-57
2021/10/02 13:27:35;;;;;;;;;;;19.90;85.40;;;;;;5044512;28;19967;-57
2021/10/02 13:30:12;;;;;;;;;;;19.90;86.20;;;;;;5041630;28;20377;-59
2021/10/02 13:32:38;;;;;;;;;;;19.90;86.10;;;;;;5040726;28;19927;-61
2021/10/02 13:35:08;;;;;;;;;;;19.80;86.10;;;;;;5044617;28;20277;-61
2021/10/02 13:37:34;;;;;;;;;;;19.90;86.30;;;;;;5043305;28;19916;-60
2021/10/02 13:40:04;;;;;;;;;;;19.90;85.70;;;;;;5041754;28;19919;-58
2021/10/02 13:42:30;;;;;;;;;;;19.80;85.90;;;;;;5045679;28;19913;-60
2021/10/02 13:44:56;;;;;;;;;;;19.80;86.20;;;;;;5043314;28;19919;-61
2021/10/02 13:47:25;;;;;;;;;;;19.80;86.10;;;;;;5043960;28;20600;-59
2021/10/02 13:49:51;;;;;;;;;;;19.80;86.10;;;;;;5042748;28;20388;-63
2021/10/02 13:52:17;;;;;;;;;;;19.70;85.90;;;;;;5042842;28;19916;-57
2021/10/02 13:54:43;;;;;;;;;;;19.60;86.30;;;;;;5043340;28;20391;-62
2021/10/02 13:57:08;;;;;;;;;;;19.60;86.30;;;;;;5043780;28;20002;-58
2021/10/02 13:59:34;;;;;;;;;;;19.60;86.00;;;;;;5044125;28;20010;-61
2021/10/02 14:02:00;;;;;;;;;;;19.50;86.20;;;;;;5026412;28;20277;-62
2021/10/02 14:04:25;;;;;;;;;;;19.50;86.00;;;;;;5042918;28;19916;-60
2021/10/02 14:06:51;;;;;;;;;;;19.40;86.00;;;;;;5043237;28;20115;-61
2021/10/02 14:09:16;;;;;;;;;;;19.50;86.40;;;;;;5043071;28;20483;-62
2021/10/02 14:11:42;;;;;;;;;;;19.50;86.90;;;;;;5039266;28;20328;-61
2021/10/02 14:14:07;;;;;;;;;;;19.60;87.20;;;;;;5036371;28;20098;-62
2021/10/02 14:16:33;;;;;;;;;;;19.70;86.00;;;;;;5046089;28;19913;-61
2021/10/02 14:18:58;;;;;;;;;;;19.70;85.60;;;;;;5042445;28;19917;-62
2021/10/02 14:21:24;;;;;;;;;;;19.70;85.50;;;;;;5044966;28;20299;-61
2021/10/02 14:23:50;;;;;;;;;;;19.70;85.50;;;;;;5039890;28;20003;-61
2021/10/02 14:26:18;;;;;;;;;;;19.70;85.60;;;;;;5045458;28;19959;-59
2021/10/02 14:28:44;;;;;;;;;;;19.70;85.70;;;;;;5045530;28;19952;-61
2021/10/02 14:31:10;;;;;;;;;;;19.80;85.90;;;;;;5044915;28;19979;-58
2021/10/02 14:33:36;;;;;;;;;;;19.80;85.90;;;;;;5045052;28;20357;-62
2021/10/02 14:36:01;;;;;;;;;;;19.70;85.60;;;;;;5046286;28;20051;-60
2021/10/02 14:38:27;;;;;;;;;;;19.60;85.60;;;;;;5043373;28;19913;-63
2021/10/02 14:40:52;;;;;;;;;;;19.60;85.80;;;;;;5044403;28;19913;-63
2021/10/02 14:43:18;;;;;;;;;;;19.50;86.20;;;;;;5046576;28;19935;-59
2021/10/02 14:45:43;;;;;;;;;;;19.50;86.30;;;;;;5046135;28;20038;-62
2021/10/02 14:48:09;;;;;;;;;;;19.60;86.40;;;;;;5046641;28;20261;-61
2021/10/02 14:50:34;;;;;;;;;;;19.60;86.30;;;;;;5045728;28;19913;-61
2021/10/02 14:53:01;;;;;;;;;;;19.50;86.20;;;;;;5043799;28;19920;-59
2021/10/02 14:55:27;;;;;;;;;;;19.50;86.50;;;;;;5046255;28;19913;-59
2021/10/02 14:57:54;;;;;;;;;;;19.50;86.40;;;;;;5043603;28;19936;-59
2021/10/02 15:00:20;;;;;;;;;;;19.50;86.20;;;;;;5041811;28;20615;-60
2021/10/02 15:02:45;;;;;;;;;;;19.50;86.50;;;;;;5040063;28;20004;-62
2021/10/02 15:05:12;;;;;;;;;;;19.50;86.60;;;;;;5042396;28;20423;-62